Time;durP1;ratioP1;P1;durP2;ratioP2;P2;SDS_P1;SDS_P2;PMS_P1;PMS_P2;Temp;Humidity;BMP_temperature;BMP_pressure;BME280_temperature;BME280_humidity;BME280_pressure;Samples;Min_cycle;Max_cycle;Signal;HPM_P1;HPM_P2
2022/11/11 00:02:07;;;;;;;1.60;1.20;;;10.20;98.20;;;;;;4973074;28;21044;-81
2022/11/11 00:04:34;;;;;;;1.50;1.20;;;10.20;98.20;;;;;;4976976;28;20468;-80
2022/11/11 00:07:01;;;;;;;1.57;1.10;;;10.20;98.20;;;;;;4962075;28;21016;-81
2022/11/11 00:09:28;;;;;;;1.53;1.10;;;10.20;98.20;;;;;;4976573;28;20462;-79
2022/11/11 00:11:55;;;;;;;1.60;1.20;;;10.10;98.20;;;;;;4963739;28;20568;-81
2022/11/11 00:14:21;;;;;;;1.53;1.10;;;10.10;98.20;;;;;;4964205;28;20488;-81
2022/11/11 00:25:06;;;;;;;2.37;2.17;;;10.10;98.20;;;;;;4971760;28;20469;-82
2022/11/11 00:27:34;;;;;;;1.60;1.20;;;10.10;98.20;;;;;;4976898;28;20489;-80
2022/11/11 00:30:00;;;;;;;1.60;1.30;;;10.10;98.20;;;;;;4975673;28;20462;-81
2022/11/11 00:32:29;;;;;;;1.60;1.20;;;10.10;98.20;;;;;;4968194;28;20506;-77
2022/11/11 00:37:45;;;;;;;1.60;1.20;;;10.10;98.20;;;;;;4970576;28;20487;-81
2022/11/11 00:40:12;;;;;;;1.53;1.20;;;10.10;98.20;;;;;;4974015;28;20461;-80
2022/11/11 00:42:39;;;;;;;1.60;1.20;;;10.00;98.20;;;;;;4976827;28;20562;-79
2022/11/11 00:45:08;;;;;;;1.57;1.10;;;10.00;98.20;;;;;;4973720;28;20955;-81
2022/11/11 00:53:10;;;;;;;1.60;1.17;;;9.90;98.20;;;;;;4970615;28;20547;-81
2022/11/11 00:55:36;;;;;;;1.53;1.20;;;9.90;98.20;;;;;;4972988;28;20681;-81
2022/11/11 00:58:03;;;;;;;1.57;1.20;;;9.90;98.20;;;;;;4977731;28;20488;-81
2022/11/11 01:00:31;;;;;;;1.60;1.30;;;9.90;98.20;;;;;;4973570;28;21037;-81
2022/11/11 01:02:58;;;;;;;1.60;1.20;;;9.90;98.20;;;;;;4961422;28;20572;-80
2022/11/11 01:05:26;;;;;;;1.70;1.50;;;9.80;98.20;;;;;;4968524;28;20466;-82
2022/11/11 01:07:54;;;;;;;1.57;1.10;;;9.80;98.20;;;;;;4973563;28;20489;-81
2022/11/11 01:10:42;;;;;;;1.60;1.10;;;9.80;98.20;;;;;;4960248;28;20490;-81
2022/11/11 01:13:15;;;;;;;1.60;1.20;;;9.80;98.20;;;;;;4977009;28;20581;-81
2022/11/11 01:15:44;;;;;;;1.60;1.20;;;9.70;98.20;;;;;;4972641;28;20466;-81
2022/11/11 01:18:12;;;;;;;1.60;1.30;;;9.70;98.20;;;;;;4977561;28;20500;-80
2022/11/11 01:20:41;;;;;;;1.60;1.20;;;9.70;98.20;;;;;;4973853;28;20496;-81
2022/11/11 01:23:10;;;;;;;1.53;1.20;;;9.70;98.20;;;;;;4960060;28;21008;-80
2022/11/11 01:25:38;;;;;;;1.57;1.20;;;9.70;98.20;;;;;;4971058;28;21018;-82
2022/11/11 01:28:06;;;;;;;1.60;1.13;;;9.70;98.20;;;;;;4982076;28;20508;-82
2022/11/11 01:30:34;;;;;;;1.53;1.10;;;9.60;98.20;;;;;;4976878;28;20512;-81
2022/11/11 01:33:01;;;;;;;1.60;1.10;;;9.60;98.20;;;;;;4973982;28;20572;-79
2022/11/11 01:35:29;;;;;;;1.60;1.20;;;9.60;98.20;;;;;;4971402;28;20470;-79
2022/11/11 01:37:57;;;;;;;1.60;1.17;;;9.50;98.20;;;;;;4978428;28;20492;-78
2022/11/11 01:40:24;;;;;;;1.60;1.10;;;9.50;98.20;;;;;;4975508;28;20465;-80
2022/11/11 01:42:52;;;;;;;1.60;1.20;;;9.50;98.20;;;;;;4964821;28;20656;-80
2022/11/11 01:45:45;;;;;;;1.60;1.10;;;9.50;98.20;;;;;;4973981;28;20462;-80
2022/11/11 01:51:03;;;;;;;1.60;1.30;;;9.50;98.20;;;;;;4965854;28;20457;-80
2022/11/11 01:53:31;;;;;;;1.60;1.20;;;9.40;98.20;;;;;;4968834;28;20960;-79
2022/11/11 01:56:01;;;;;;;1.60;1.20;;;9.40;98.20;;;;;;4957467;28;20462;-78
2022/11/11 01:58:28;;;;;;;1.60;1.20;;;9.40;98.20;;;;;;4988158;28;20477;-79
2022/11/11 02:00:56;;;;;;;6.13;3.20;;;9.40;98.20;;;;;;4964281;28;20878;-79
2022/11/11 02:03:26;;;;;;;1.60;1.13;;;9.40;98.20;;;;;;4968129;28;20482;-78
2022/11/11 02:05:55;;;;;;;1.60;1.20;;;9.40;98.20;;;;;;4954204;28;20458;-78
2022/11/11 02:08:32;;;;;;;2.27;2.07;;;9.40;98.20;;;;;;4980544;28;20461;-78
2022/11/11 02:11:02;;;;;;;1.60;1.30;;;9.40;98.20;;;;;;4963946;28;20446;-77
2022/11/11 02:16:15;;;;;;;1.60;1.20;;;9.30;98.20;;;;;;4962300;28;20612;-78
2022/11/11 02:18:43;;;;;;;1.60;1.20;;;9.30;98.20;;;;;;4965358;28;20466;-78
2022/11/11 02:21:12;;;;;;;1.60;1.20;;;9.30;98.20;;;;;;4948881;28;20501;-78
2022/11/11 02:23:44;;;;;;;1.60;1.20;;;9.30;98.20;;;;;;4981610;28;20855;-78
2022/11/11 02:26:16;;;;;;;1.60;1.20;;;9.30;98.20;;;;;;4959580;28;20488;-77
2022/11/11 02:28:43;;;;;;;1.60;1.20;;;9.30;98.20;;;;;;4978563;28;20465;-79
2022/11/11 02:31:12;;;;;;;1.60;1.20;;;9.20;98.20;;;;;;4964496;28;20495;-78
2022/11/11 02:33:38;;;;;;;1.57;1.17;;;9.30;98.20;;;;;;4973965;28;20859;-78
2022/11/11 02:36:06;;;;;;;1.60;1.20;;;9.20;98.20;;;;;;4955778;28;20474;-78
2022/11/11 02:38:33;;;;;;;1.60;1.20;;;9.20;98.20;;;;;;4980084;28;20462;-80
2022/11/11 02:43:46;;;;;;;1.60;1.20;;;9.20;98.20;;;;;;4984036;28;20481;-79
2022/11/11 02:46:12;;;;;;;1.60;1.20;;;9.20;98.20;;;;;;4949969;28;21038;-79
2022/11/11 02:48:39;;;;;;;1.60;1.20;;;9.20;98.20;;;;;;4977844;28;20458;-80
2022/11/11 02:51:07;;;;;;;1.60;1.20;;;9.20;98.20;;;;;;4964716;28;20477;-80
2022/11/11 02:53:34;;;;;;;1.60;1.20;;;9.20;98.20;;;;;;4971823;28;20556;-79
2022/11/11 02:56:01;;;;;;;1.60;1.20;;;9.20;98.20;;;;;;4952797;28;20955;-80
2022/11/11 02:58:28;;;;;;;1.60;1.20;;;9.20;98.20;;;;;;4995895;23;20459;-81
2022/11/11 03:00:56;;;;;;;1.60;1.20;;;9.20;98.20;;;;;;4990353;28;20461;-81
2022/11/11 03:03:23;;;;;;;1.60;1.20;;;9.10;98.20;;;;;;5021961;28;20464;-81
2022/11/11 03:05:49;;;;;;;1.60;1.20;;;9.20;98.20;;;;;;4989260;28;20469;-81
2022/11/11 03:08:17;;;;;;;1.60;1.20;;;9.10;98.20;;;;;;5015953;28;20457;-81
2022/11/11 03:10:43;;;;;;;1.60;1.20;;;9.10;98.20;;;;;;4971840;28;20977;-81
2022/11/11 03:13:10;;;;;;;1.60;1.20;;;9.10;98.20;;;;;;4992844;28;21011;-81
2022/11/11 03:15:37;;;;;;;1.60;1.30;;;9.10;98.20;;;;;;4971826;28;20473;-81
2022/11/11 03:18:04;;;;;;;1.60;1.20;;;9.10;98.20;;;;;;4993205;28;21103;-81
2022/11/11 03:23:16;;;;;;;2.33;1.53;;;9.10;98.20;;;;;;4960580;28;20470;-81
2022/11/11 03:25:45;;;;;;;1.57;1.20;;;9.10;98.20;;;;;;4983829;28;20480;-81
2022/11/11 03:28:14;;;;;;;1.60;1.20;;;9.10;98.20;;;;;;4973215;28;20472;-81
2022/11/11 03:30:43;;;;;;;1.60;1.17;;;9.10;98.20;;;;;;4990098;28;20461;-80
2022/11/11 03:33:12;;;;;;;1.60;1.20;;;9.10;98.20;;;;;;4992146;28;20566;-81
2022/11/11 03:35:39;;;;;;;1.60;1.20;;;9.00;98.20;;;;;;4975031;28;20469;-81
2022/11/11 03:38:22;;;;;;;1.60;1.20;;;9.00;98.20;;;;;;4995188;28;20486;-81
2022/11/11 03:40:50;;;;;;;1.50;1.13;;;9.00;98.20;;;;;;4963966;28;20565;-81
2022/11/11 03:43:18;;;;;;;1.60;1.20;;;9.00;98.20;;;;;;5004461;28;20465;-81
2022/11/11 03:45:46;;;;;;;1.60;1.20;;;9.00;98.20;;;;;;4991554;28;20471;-81
2022/11/11 03:48:14;;;;;;;1.60;1.10;;;9.00;98.20;;;;;;4979535;28;20479;-81
2022/11/11 03:50:41;;;;;;;1.60;1.20;;;9.00;98.20;;;;;;4991996;28;20485;-81
2022/11/11 03:53:08;;;;;;;1.60;1.20;;;9.00;98.20;;;;;;4994255;28;20482;-81
2022/11/11 03:55:35;;;;;;;1.60;1.20;;;9.00;98.20;;;;;;4974648;28;20466;-80
2022/11/11 03:58:01;;;;;;;1.60;1.20;;;9.00;98.20;;;;;;5000532;28;20480;-80
2022/11/11 04:00:29;;;;;;;1.60;1.10;;;9.00;98.20;;;;;;4978201;28;20490;-81
2022/11/11 04:11:29;;;;;;;1.60;1.30;;;8.90;98.20;;;;;;4980508;28;20494;-80
2022/11/11 04:16:43;;;;;;;1.60;1.20;;;8.80;98.20;;;;;;4981591;28;21066;-81
2022/11/11 04:21:55;;;;;;;1.60;1.23;;;8.70;98.20;;;;;;4982704;28;20487;-81
2022/11/11 04:27:08;;;;;;;1.60;1.23;;;8.70;98.20;;;;;;4995365;28;20482;-80
2022/11/11 04:29:34;;;;;;;1.60;1.20;;;8.70;98.20;;;;;;4994409;28;20474;-80
2022/11/11 04:34:48;;;;;;;1.60;1.20;;;8.70;98.20;;;;;;4990175;28;20460;-81
2022/11/11 04:37:17;;;;;;;1.60;1.20;;;8.70;98.20;;;;;;4992520;28;20480;-81
2022/11/11 04:42:30;;;;;;;1.60;1.30;;;8.60;98.20;;;;;;4991716;28;20490;-81
2022/11/11 04:47:53;;;;;;;1.60;1.30;;;8.60;98.20;;;;;;4995874;28;21073;-81
2022/11/11 04:50:20;;;;;;;1.60;1.27;;;8.60;98.20;;;;;;4989241;28;20483;-80
2022/11/11 04:52:48;;;;;;;1.60;1.20;;;8.60;98.20;;;;;;4991503;28;20487;-80
2022/11/11 04:58:00;;;;;;;1.60;1.10;;;8.60;98.20;;;;;;4999359;28;20502;-80
2022/11/11 05:00:27;;;;;;;1.60;1.30;;;8.60;98.20;;;;;;4995040;28;20858;-80
2022/11/11 05:11:05;;;;;;;1.60;1.20;;;8.60;98.20;;;;;;4974946;28;20542;-81
2022/11/11 05:21:52;;;;;;;1.60;1.20;;;8.60;98.20;;;;;;4988542;28;21039;-80
2022/11/11 05:27:10;;;;;;;1.60;1.20;;;8.70;98.20;;;;;;4924627;28;20503;-80
2022/11/11 05:29:37;;;;;;;1.60;1.20;;;8.70;98.20;;;;;;4975407;28;20490;-80
2022/11/11 05:32:04;;;;;;;1.60;1.30;;;8.70;98.20;;;;;;4978595;28;20487;-80
2022/11/11 05:34:31;;;;;;;1.60;1.20;;;8.70;98.20;;;;;;4993706;28;20457;-81
2022/11/11 05:36:58;;;;;;;1.60;1.20;;;8.70;98.20;;;;;;4996110;28;20776;-81
2022/11/11 05:39:26;;;;;;;1.60;1.20;;;8.70;98.20;;;;;;5004260;28;20496;-81
2022/11/11 05:41:53;;;;;;;1.60;1.20;;;8.70;98.20;;;;;;4986026;28;20481;-80
2022/11/11 05:44:20;;;;;;;1.70;1.60;;;8.80;98.20;;;;;;4994729;28;20465;-81
2022/11/11 05:46:47;;;;;;;1.60;1.20;;;8.80;98.20;;;;;;4986722;28;20495;-80
2022/11/11 05:49:16;;;;;;;2.27;1.80;;;8.80;98.20;;;;;;4998129;28;20481;-80
2022/11/11 05:51:43;;;;;;;1.60;1.20;;;8.80;98.20;;;;;;4987553;28;21025;-81
2022/11/11 05:54:10;;;;;;;1.60;1.20;;;8.80;98.20;;;;;;4999825;28;20561;-80
2022/11/11 05:56:38;;;;;;;1.60;1.40;;;8.80;98.20;;;;;;4992170;28;20484;-80
2022/11/11 05:59:05;;;;;;;1.63;1.43;;;8.80;98.20;;;;;;5005487;28;20543;-80
2022/11/11 06:01:32;;;;;;;1.60;1.20;;;8.80;98.20;;;;;;4992257;28;20496;-80
2022/11/11 06:03:59;;;;;;;1.60;1.20;;;8.80;98.20;;;;;;5009517;28;20467;-80
2022/11/11 06:06:26;;;;;;;1.60;1.20;;;8.70;98.20;;;;;;4992907;28;20475;-81
2022/11/11 06:08:53;;;;;;;1.60;1.20;;;8.70;98.20;;;;;;5008515;28;20489;-80
2022/11/11 06:11:20;;;;;;;1.60;1.30;;;8.70;98.20;;;;;;4993114;28;20488;-81
2022/11/11 06:13:49;;;;;;;1.60;1.30;;;8.60;98.20;;;;;;4997299;28;20755;-81
2022/11/11 06:16:15;;;;;;;1.60;1.30;;;8.60;98.20;;;;;;4993343;28;20539;-79
2022/11/11 06:18:42;;;;;;;1.60;1.20;;;8.60;98.20;;;;;;5007790;28;20783;-80
2022/11/11 06:21:09;;;;;;;1.57;1.10;;;8.60;98.20;;;;;;4993861;28;21510;-81
2022/11/11 06:23:36;;;;;;;1.60;1.20;;;8.60;98.20;;;;;;5009696;28;20480;-77
2022/11/11 06:26:12;;;;;;;1.60;1.20;;;8.60;98.20;;;;;;4989121;28;20568;-80
2022/11/11 06:28:40;;;;;;;2.80;2.60;;;8.60;98.20;;;;;;5011857;28;20485;-80
2022/11/11 06:31:10;;;;;;;1.60;1.20;;;8.60;98.20;;;;;;4985702;28;20990;-79
2022/11/11 06:33:38;;;;;;;1.60;1.20;;;8.60;98.20;;;;;;4984781;28;20458;-80
2022/11/11 06:36:06;;;;;;;1.60;1.20;;;8.70;98.20;;;;;;4967328;28;20548;-79
2022/11/11 06:38:33;;;;;;;1.60;1.20;;;8.70;98.20;;;;;;5009092;28;20487;-82
2022/11/11 06:41:00;;;;;;;1.60;1.20;;;8.70;98.20;;;;;;4985619;28;20469;-78
2022/11/11 06:43:27;;;;;;;1.70;1.40;;;8.70;98.20;;;;;;5010354;28;20489;-81
2022/11/11 06:45:55;;;;;;;1.60;1.30;;;8.70;98.20;;;;;;4988984;28;20469;-81
2022/11/11 06:48:27;;;;;;;1.60;1.20;;;8.70;98.20;;;;;;5012747;28;20472;-81
2022/11/11 06:50:55;;;;;;;1.60;1.20;;;8.70;98.20;;;;;;4985519;28;20463;-81
2022/11/11 06:53:22;;;;;;;1.60;1.20;;;8.70;98.20;;;;;;5013362;28;20504;-80
2022/11/11 06:55:52;;;;;;;1.60;1.20;;;8.70;98.20;;;;;;4987198;28;20465;-79
2022/11/11 06:58:20;;;;;;;1.60;1.17;;;8.70;98.20;;;;;;5011692;28;20481;-80
2022/11/11 07:00:48;;;;;;;1.60;1.20;;;8.80;98.20;;;;;;4993326;28;20473;-80
2022/11/11 07:03:17;;;;;;;1.60;1.20;;;8.70;98.20;;;;;;5007288;28;20500;-80
2022/11/11 07:05:46;;;;;;;1.60;1.20;;;8.80;98.20;;;;;;4997773;28;20584;-80
2022/11/11 07:08:15;;;;;;;1.60;1.20;;;8.70;98.20;;;;;;4965472;28;20557;-80
2022/11/11 07:10:45;;;;;;;1.60;1.20;;;8.80;98.20;;;;;;4980597;28;20878;-79
2022/11/11 07:13:12;;;;;;;1.60;1.20;;;8.80;98.20;;;;;;5001170;28;20507;-79
2022/11/11 07:15:39;;;;;;;1.60;1.20;;;8.80;98.20;;;;;;4996268;28;20496;-79
2022/11/11 07:18:06;;;;;;;1.60;1.20;;;8.80;98.20;;;;;;4985283;28;20485;-78
2022/11/11 07:20:33;;;;;;;1.60;1.20;;;8.80;98.20;;;;;;4996104;28;20532;-79
2022/11/11 07:26:23;;;;;;;1.60;1.20;;;8.90;98.20;;;;;;4988042;28;21091;-79
2022/11/11 07:28:50;;;;;;;1.57;1.20;;;9.00;98.20;;;;;;5005839;28;21094;-79
2022/11/11 07:31:17;;;;;;;1.60;1.37;;;9.00;98.20;;;;;;4983496;28;20546;-80
2022/11/11 07:33:43;;;;;;;1.60;1.20;;;9.00;98.20;;;;;;4995963;28;20485;-80
2022/11/11 07:36:10;;;;;;;1.60;1.20;;;9.00;98.20;;;;;;4987208;28;20476;-79
2022/11/11 07:38:38;;;;;;;1.60;1.20;;;9.10;98.20;;;;;;5010186;28;20495;-79
2022/11/11 07:41:05;;;;;;;1.60;1.20;;;9.10;98.20;;;;;;4983430;28;20487;-80
2022/11/11 07:43:32;;;;;;;1.60;1.10;;;9.20;98.20;;;;;;4993447;28;20488;-80
2022/11/11 07:45:59;;;;;;;1.60;1.20;;;9.20;98.20;;;;;;4986236;28;20476;-80
2022/11/11 07:48:25;;;;;;;1.60;1.20;;;9.30;98.20;;;;;;4994684;28;20469;-81
2022/11/11 07:50:53;;;;;;;1.60;1.20;;;9.30;98.20;;;;;;4980832;28;20809;-79
2022/11/11 07:53:20;;;;;;;3.10;2.80;;;9.30;98.20;;;;;;5008071;28;20813;-81
2022/11/11 07:55:48;;;;;;;1.60;1.20;;;9.40;98.20;;;;;;4995350;28;20464;-80
2022/11/11 07:58:15;;;;;;;1.60;1.20;;;9.40;98.20;;;;;;4984103;28;20560;-81
2022/11/11 08:00:42;;;;;;;1.60;1.20;;;9.50;98.20;;;;;;4996070;28;20460;-80
2022/11/11 08:03:09;;;;;;;1.60;1.30;;;9.50;98.20;;;;;;4998614;28;20553;-80
2022/11/11 08:05:36;;;;;;;1.60;1.20;;;9.50;98.20;;;;;;4996594;28;20469;-80
2022/11/11 08:08:04;;;;;;;1.60;1.20;;;9.60;98.20;;;;;;4984819;28;20915;-80
2022/11/11 08:10:31;;;;;;;1.60;1.20;;;9.60;98.20;;;;;;4992064;28;20485;-80
2022/11/11 08:15:43;;;;;;;1.60;1.20;;;9.70;98.20;;;;;;4993820;28;20464;-80
2022/11/11 08:18:10;;;;;;;1.60;1.10;;;9.80;98.20;;;;;;4998925;28;20485;-80
2022/11/11 08:20:38;;;;;;;1.60;1.30;;;9.80;98.20;;;;;;4990343;28;20552;-81
2022/11/11 08:23:09;;;;;;;1.60;1.30;;;9.80;98.20;;;;;;5001721;28;20843;-81
2022/11/11 08:25:36;;;;;;;1.60;1.20;;;9.90;98.20;;;;;;4993138;28;20516;-81
2022/11/11 08:28:05;;;;;;;1.60;1.20;;;9.90;98.20;;;;;;5000343;28;21185;-81
2022/11/11 08:30:33;;;;;;;1.97;1.77;;;10.00;98.20;;;;;;4994859;28;20635;-81
2022/11/11 08:33:00;;;;;;;2.27;2.00;;;10.00;98.20;;;;;;4979275;28;20496;-81
2022/11/11 08:35:37;;;;;;;1.60;1.10;;;10.00;98.20;;;;;;4997602;28;20991;-82
2022/11/11 08:38:04;;;;;;;1.60;1.10;;;10.10;98.20;;;;;;5007489;28;20500;-81
2022/11/11 08:40:31;;;;;;;1.60;1.20;;;10.10;98.20;;;;;;4998287;28;20545;-83
2022/11/11 08:42:58;;;;;;;1.60;1.30;;;10.10;98.20;;;;;;4999928;28;20484;-82
2022/11/11 08:45:26;;;;;;;1.60;1.20;;;10.10;98.20;;;;;;4975948;28;20465;-83
2022/11/11 08:47:53;;;;;;;1.60;1.20;;;10.10;98.20;;;;;;5004808;28;20492;-82
2022/11/11 08:50:20;;;;;;;1.70;1.20;;;10.20;98.20;;;;;;4983947;28;20478;-82
2022/11/11 08:52:47;;;;;;;1.60;1.20;;;10.20;98.20;;;;;;5004058;28;20487;-83
2022/11/11 08:55:15;;;;;;;1.60;1.20;;;10.20;98.20;;;;;;4996107;28;20470;-82
2022/11/11 08:57:42;;;;;;;1.60;1.10;;;10.30;98.20;;;;;;5004901;28;20534;-83
2022/11/11 09:00:10;;;;;;;1.60;1.10;;;10.30;98.20;;;;;;4984427;28;20569;-82
2022/11/11 09:02:38;;;;;;;1.60;1.10;;;10.40;98.20;;;;;;5004617;28;20535;-83
2022/11/11 09:05:06;;;;;;;1.60;1.20;;;10.40;98.20;;;;;;4993764;28;20461;-82
2022/11/11 09:07:33;;;;;;;1.60;1.10;;;10.50;98.20;;;;;;5006255;28;20479;-82
2022/11/11 09:10:00;;;;;;;1.70;1.47;;;10.50;98.20;;;;;;4987777;28;21031;-82
2022/11/11 09:12:27;;;;;;;1.60;1.20;;;10.60;98.20;;;;;;4999460;28;20511;-83
2022/11/11 09:14:55;;;;;;;1.60;1.10;;;10.70;98.20;;;;;;5004402;28;20461;-83
2022/11/11 09:17:22;;;;;;;1.60;1.20;;;10.70;98.20;;;;;;5004715;28;20988;-83
2022/11/11 09:19:50;;;;;;;1.60;1.10;;;10.70;98.20;;;;;;4991530;28;20541;-82
2022/11/11 09:22:17;;;;;;;1.60;1.10;;;10.70;98.20;;;;;;4998016;28;20483;-83
2022/11/11 09:24:47;;;;;;;1.60;1.20;;;10.80;98.20;;;;;;4994725;28;20466;-83
2022/11/11 09:27:14;;;;;;;1.60;1.20;;;10.90;98.20;;;;;;5006977;28;20596;-82
2022/11/11 09:29:40;;;;;;;1.60;1.50;;;11.00;98.20;;;;;;4996084;28;20498;-82
2022/11/11 09:32:07;;;;;;;1.60;1.10;;;11.00;98.20;;;;;;4995736;28;20491;-81
2022/11/11 09:34:50;;;;;;;1.60;1.10;;;11.10;98.20;;;;;;5008801;28;20496;-82
2022/11/11 09:37:18;;;;;;;1.60;1.20;;;11.20;98.20;;;;;;5000708;28;20480;-82
2022/11/11 09:39:48;;;;;;;1.80;1.60;;;11.30;98.20;;;;;;5005365;28;20477;-82
2022/11/11 09:42:25;;;;;;;1.60;1.20;;;11.30;98.20;;;;;;4996309;28;20475;-82
2022/11/11 09:45:14;;;;;;;1.60;1.07;;;11.40;98.20;;;;;;5000776;28;20461;-81
2022/11/11 09:47:55;;;;;;;1.60;1.10;;;11.40;98.20;;;;;;4995534;28;20529;-82
2022/11/11 09:50:23;;;;;;;1.60;1.10;;;11.50;98.20;;;;;;4987223;28;20485;-81
2022/11/11 09:52:57;;;;;;;1.60;1.00;;;11.60;98.20;;;;;;5006342;28;20475;-82
2022/11/11 09:55:30;;;;;;;2.43;2.23;;;11.70;98.20;;;;;;4997546;28;20459;-82
2022/11/11 09:58:00;;;;;;;1.57;1.00;;;11.80;98.20;;;;;;5005987;28;20514;-83
2022/11/11 10:00:29;;;;;;;1.60;1.30;;;11.80;98.20;;;;;;5002255;28;20484;-81
2022/11/11 10:03:15;;;;;;;1.60;1.10;;;11.90;98.20;;;;;;5005582;28;20482;-81
2022/11/11 10:05:48;;;;;;;1.60;1.00;;;11.90;98.20;;;;;;4988696;28;20539;-82
2022/11/11 10:08:20;;;;;;;1.60;1.20;;;12.00;98.20;;;;;;4960610;28;20477;-81
2022/11/11 10:10:48;;;;;;;1.60;1.20;;;12.00;98.20;;;;;;4982327;28;20462;-82
2022/11/11 10:13:16;;;;;;;1.53;1.00;;;12.00;98.20;;;;;;5010540;28;20466;-82
2022/11/11 10:15:55;;;;;;;1.53;1.10;;;12.00;98.20;;;;;;4980563;28;20465;-81
2022/11/11 10:18:56;;;;;;;1.60;1.10;;;12.10;98.20;;;;;;4946163;28;20474;-81
2022/11/11 10:21:31;;;;;;;1.60;1.10;;;12.10;98.20;;;;;;4952147;28;20553;-82
2022/11/11 10:24:04;;;;;;;1.60;1.10;;;12.10;98.20;;;;;;4977511;28;20481;-82
2022/11/11 10:26:37;;;;;;;1.60;1.20;;;12.20;98.20;;;;;;4971445;28;20555;-81
2022/11/11 10:29:12;;;;;;;1.57;1.10;;;12.30;98.20;;;;;;5008815;28;20519;-82
2022/11/11 10:31:41;;;;;;;1.60;1.10;;;12.40;98.20;;;;;;4987749;28;20495;-82
2022/11/11 10:34:11;;;;;;;1.60;1.00;;;12.40;98.20;;;;;;5011922;28;20467;-82
2022/11/11 10:36:44;;;;;;;1.60;1.10;;;12.50;98.20;;;;;;4994963;28;20544;-81
2022/11/11 10:39:16;;;;;;;1.53;1.00;;;12.50;98.20;;;;;;5009310;28;20508;-81
2022/11/11 10:41:47;;;;;;;1.60;1.00;;;12.60;98.20;;;;;;4999353;28;20486;-82
2022/11/11 10:44:37;;;;;;;1.57;1.00;;;12.70;98.20;;;;;;5007511;28;20900;-82
2022/11/11 10:47:11;;;;;;;1.57;1.00;;;12.70;98.20;;;;;;4992690;28;20496;-82
2022/11/11 10:49:43;;;;;;;1.53;1.00;;;12.80;98.20;;;;;;4993888;28;20545;-82
2022/11/11 10:52:18;;;;;;;1.60;1.00;;;12.80;98.20;;;;;;4990465;28;20492;-81
2022/11/11 10:54:52;;;;;;;1.57;1.10;;;12.90;98.20;;;;;;5002297;28;20456;-82
2022/11/11 10:57:26;;;;;;;1.60;1.10;;;12.90;98.20;;;;;;5000609;28;20479;-82
2022/11/11 11:00:00;;;;;;;1.60;1.00;;;12.90;98.20;;;;;;4990159;28;20565;-83
2022/11/11 11:02:31;;;;;;;1.53;1.00;;;13.00;98.20;;;;;;4992168;28;20502;-81
2022/11/11 11:05:03;;;;;;;1.60;1.10;;;13.00;98.20;;;;;;4998306;28;20576;-81
2022/11/11 11:07:37;;;;;;;1.50;1.00;;;13.00;98.20;;;;;;4992385;28;20484;-80
2022/11/11 11:10:12;;;;;;;1.60;1.10;;;13.00;98.20;;;;;;4993861;28;20489;-81
2022/11/11 11:12:46;;;;;;;1.50;1.00;;;13.00;98.20;;;;;;4980769;28;20514;-80
2022/11/11 11:15:17;;;;;;;3.67;3.47;;;13.10;98.20;;;;;;4992107;28;20461;-81
2022/11/11 11:17:53;;;;;;;1.53;1.00;;;13.10;98.20;;;;;;4981295;28;20488;-80
2022/11/11 11:20:21;;;;;;;1.57;1.00;;;13.10;98.20;;;;;;4995094;28;21017;-80
2022/11/11 11:22:54;;;;;;;1.53;1.00;;;13.10;98.20;;;;;;4999461;28;20552;-80
2022/11/11 11:25:23;;;;;;;1.53;1.00;;;13.20;98.20;;;;;;4991744;28;20457;-80
2022/11/11 11:27:52;;;;;;;1.57;1.00;;;13.20;98.20;;;;;;4994229;28;20484;-80
2022/11/11 11:30:21;;;;;;;1.53;1.00;;;13.20;98.20;;;;;;4991753;28;21061;-80
2022/11/11 11:32:57;;;;;;;1.53;1.00;;;13.30;98.20;;;;;;4994871;28;20726;-80
2022/11/11 11:35:36;;;;;;;1.57;1.00;;;13.30;98.20;;;;;;4980453;28;20982;-81
2022/11/11 11:38:04;;;;;;;1.53;1.00;;;13.30;98.20;;;;;;4972975;28;20480;-81
2022/11/11 11:40:48;;;;;;;1.53;0.97;;;13.40;98.20;;;;;;4968306;28;20875;-80
2022/11/11 11:43:33;;;;;;;1.57;1.00;;;13.50;98.20;;;;;;4954653;28;20496;-80
2022/11/11 11:46:01;;;;;;;1.57;1.07;;;13.50;98.20;;;;;;4954147;28;20467;-81
2022/11/11 11:48:42;;;;;;;1.60;1.00;;;13.60;98.20;;;;;;4999459;28;21003;-81
2022/11/11 11:51:19;;;;;;;1.60;1.20;;;13.70;98.20;;;;;;4977860;28;20614;-80
2022/11/11 11:53:59;;;;;;;1.57;1.00;;;13.80;98.20;;;;;;4999928;28;20472;-80
2022/11/11 11:56:36;;;;;;;1.60;1.10;;;13.90;98.20;;;;;;4977795;28;20482;-80
2022/11/11 11:59:09;;;;;;;1.53;1.00;;;13.90;98.20;;;;;;4990974;28;20502;-80
2022/11/11 12:01:46;;;;;;;1.53;0.90;;;14.00;98.20;;;;;;4975093;28;20912;-80
2022/11/11 12:04:36;;;;;;;1.57;1.00;;;14.00;98.20;;;;;;4988078;28;20480;-80
2022/11/11 12:07:12;;;;;;;1.53;1.00;;;14.10;98.20;;;;;;4977304;28;20663;-80
2022/11/11 12:09:50;;;;;;;1.57;1.00;;;14.20;98.20;;;;;;4985766;28;20887;-80
2022/11/11 12:12:29;;;;;;;1.50;1.00;;;14.20;98.20;;;;;;4988775;28;20487;-80
2022/11/11 12:15:06;;;;;;;1.50;1.00;;;14.40;98.20;;;;;;4988694;28;20919;-80
2022/11/11 12:17:42;;;;;;;1.50;1.00;;;14.40;98.20;;;;;;4976722;28;20487;-80
2022/11/11 12:20:18;;;;;;;1.70;1.33;;;14.50;98.20;;;;;;4972445;28;20485;-80
2022/11/11 12:23:04;;;;;;;1.60;1.00;;;14.50;98.20;;;;;;4969734;28;20488;-80
2022/11/11 12:25:42;;;;;;;1.53;1.00;;;14.70;98.20;;;;;;4972806;28;20474;-82
2022/11/11 12:28:22;;;;;;;1.60;1.00;;;14.80;98.20;;;;;;4995699;28;20491;-80
2022/11/11 12:30:55;;;;;;;1.50;1.00;;;14.80;98.20;;;;;;4987419;28;20484;-80
2022/11/11 12:33:45;;;;;;;1.60;1.00;;;14.90;98.20;;;;;;4988559;28;20527;-80
2022/11/11 12:36:16;;;;;;;1.57;0.90;;;15.00;98.20;;;;;;4984404;28;20508;-80
2022/11/11 12:38:55;;;;;;;2.03;1.83;;;15.10;98.20;;;;;;4998832;28;20579;-81
2022/11/11 12:41:35;;;;;;;1.50;1.00;;;15.20;98.20;;;;;;4981656;28;20476;-80
2022/11/11 12:44:07;;;;;;;1.53;0.90;;;15.20;98.20;;;;;;4999734;28;20489;-81
2022/11/11 12:46:44;;;;;;;1.57;1.00;;;15.30;98.20;;;;;;4984620;28;20491;-81
2022/11/11 12:49:28;;;;;;;1.53;1.00;;;15.30;98.20;;;;;;4995352;28;20483;-80
2022/11/11 12:52:03;;;;;;;1.50;0.90;;;15.30;98.20;;;;;;4988819;28;20504;-80
2022/11/11 12:54:40;;;;;;;1.53;0.90;;;15.50;98.20;;;;;;4995485;28;20453;-81
2022/11/11 12:57:16;;;;;;;1.50;0.90;;;15.60;98.20;;;;;;4989682;28;20730;-80
2022/11/11 13:00:02;;;;;;;1.53;1.00;;;15.80;97.20;;;;;;4996235;28;20496;-80
2022/11/11 13:02:53;;;;;;;2.37;2.17;;;15.90;97.20;;;;;;4990197;28;20539;-80
2022/11/11 13:05:26;;;;;;;1.50;0.90;;;15.90;96.30;;;;;;4992131;28;20485;-80
2022/11/11 13:08:27;;;;;;;1.53;1.00;;;16.00;97.30;;;;;;4995913;28;20791;-80
2022/11/11 13:11:03;;;;;;;1.53;0.90;;;16.00;95.30;;;;;;4979548;28;20473;-81
2022/11/11 13:13:42;;;;;;;1.57;1.00;;;16.10;95.60;;;;;;5002763;28;20704;-81
2022/11/11 13:16:10;;;;;;;1.50;0.90;;;16.00;95.30;;;;;;4975531;28;20750;-80
2022/11/11 13:18:46;;;;;;;1.60;1.13;;;16.10;95.80;;;;;;5000565;28;20481;-80
2022/11/11 13:21:19;;;;;;;1.53;0.90;;;16.10;96.20;;;;;;4975231;28;20938;-80
2022/11/11 13:23:46;;;;;;;1.50;0.90;;;16.10;96.40;;;;;;4999099;28;20685;-80
2022/11/11 13:26:24;;;;;;;1.50;1.00;;;16.10;97.00;;;;;;4982008;28;20476;-80
2022/11/11 13:29:01;;;;;;;1.50;1.00;;;16.10;96.20;;;;;;4993936;28;20484;-81
2022/11/11 13:31:34;;;;;;;1.57;1.10;;;16.10;96.40;;;;;;4982062;28;20486;-80
2022/11/11 13:34:05;;;;;;;1.57;0.90;;;16.10;95.00;;;;;;4997644;28;20469;-81
2022/11/11 13:36:41;;;;;;;1.53;0.97;;;15.90;95.10;;;;;;4977781;28;20488;-82
2022/11/11 13:39:24;;;;;;;1.57;1.00;;;16.00;95.20;;;;;;4998164;28;20575;-80
2022/11/11 13:41:54;;;;;;;2.00;1.50;;;15.90;94.70;;;;;;4983206;28;20491;-80
2022/11/11 13:44:24;;;;;;;1.53;1.00;;;16.00;95.20;;;;;;4991221;28;20599;-81
2022/11/11 13:46:52;;;;;;;1.60;1.00;;;16.00;95.10;;;;;;4977821;28;20485;-81
2022/11/11 13:49:26;;;;;;;1.50;0.90;;;16.00;96.20;;;;;;4990847;28;20520;-80
2022/11/11 13:51:58;;;;;;;1.57;1.00;;;16.00;95.80;;;;;;4984754;28;20737;-80
2022/11/11 13:54:28;;;;;;;1.53;0.90;;;16.00;95.80;;;;;;4993950;28;20453;-80
2022/11/11 13:57:04;;;;;;;1.50;1.00;;;16.00;96.00;;;;;;4977886;28;20492;-80
2022/11/11 13:59:34;;;;;;;1.50;0.90;;;15.90;95.90;;;;;;4988434;28;20496;-82
2022/11/11 14:02:29;;;;;;;1.50;0.90;;;15.90;96.40;;;;;;4977414;28;21024;-81
2022/11/11 14:05:25;;;;;;;1.53;1.00;;;15.80;96.70;;;;;;4987466;28;20555;-81
2022/11/11 14:07:55;;;;;;;1.50;0.97;;;15.70;96.70;;;;;;4993445;28;20484;-80
2022/11/11 14:10:51;;;;;;;1.50;1.00;;;15.70;96.50;;;;;;4988342;28;20493;-81
2022/11/11 14:13:40;;;;;;;1.50;1.00;;;15.60;96.40;;;;;;4973721;28;20513;-80
2022/11/11 14:16:11;;;;;;;1.50;1.00;;;15.60;96.50;;;;;;4977193;28;20535;-81
2022/11/11 14:18:44;;;;;;;1.60;1.00;;;15.60;96.70;;;;;;4997936;28;20485;-80
2022/11/11 14:21:31;;;;;;;1.50;1.00;;;15.50;96.80;;;;;;4976204;28;20468;-81
2022/11/11 14:23:58;;;;;;;1.50;1.00;;;15.50;96.70;;;;;;4992909;28;20542;-81
2022/11/11 14:26:28;;;;;;;1.50;1.00;;;15.50;96.80;;;;;;4982992;28;20487;-80
2022/11/11 14:28:58;;;;;;;1.57;0.93;;;15.50;96.70;;;;;;4997885;28;20484;-81
2022/11/11 14:31:46;;;;;;;1.57;1.00;;;15.50;95.90;;;;;;4977369;28;20476;-80
2022/11/11 14:34:25;;;;;;;1.53;1.00;;;15.40;96.20;;;;;;4993724;28;20460;-82